North Cleveland, Texas
Current Conditions -  °F | °C
As of 11:53 PM on Saturday 22 Nov 2014 (Local Time) from KCXO Reporting Station
Light Rain Light Rain  
Wind Chill: 64°   Ceiling: 4200
Heat Index: 64°   Visibility: 10mi
Dew Point: 62°   Wind: 10mph
Humidity: 93%   Direction: 170°S
Pressure: 29.73"   Gusts: NA
Location:  30.2945°N, 94.9711°W
Report Text: KCXO 230553Z AUTO 17009KT 10SM -RA FEW009 BKN042 BKN049 18/17 A2973 RMK AO2 RAE01B51 SLP064 P0000 60004 T01780167 10189 20178 401940133 58026
Loading
Personal Weather Stations






























Interactive Weather Map New forecast layout! Learn more

10-Day Weather Forecast

Advertisements
Track Severe Weather on mobile